Time;durP1;ratioP1;P1;durP2;ratioP2;P2;SDS_P1;SDS_P2;PMS_P1;PMS_P2;Temp;Humidity;BMP_temperature;BMP_pressure;BME280_temperature;BME280_humidity;BME280_pressure;Samples;Min_cycle;Max_cycle;Signal;HPM_P1;HPM_P2
2022/12/27 00:02:11;;;;;;;14.10;2.00;;;;;;;5.80;71.58;101195.88;4922594;29;20253;-73
2022/12/27 00:04:40;;;;;;;3.33;1.20;;;;;;;5.58;72.40;101197.31;4901973;29;20201;-73
2022/12/27 00:07:10;;;;;;;5.30;1.67;;;;;;;5.50;73.09;101197.28;4901237;29;20616;-74
2022/12/27 00:09:40;;;;;;;1.65;1.15;;;;;;;5.36;73.49;101203.25;4911405;29;20229;-74
2022/12/27 00:12:09;;;;;;;2.95;1.40;;;;;;;5.25;74.74;101217.81;4918103;29;20218;-73
2022/12/27 00:14:39;;;;;;;6.32;2.00;;;;;;;5.18;75.07;101219.47;4894350;29;20232;-72
2022/12/27 00:17:10;;;;;;;3.45;1.30;;;;;;;5.17;74.94;101220.44;4917982;29;20203;-74
2022/12/27 00:19:40;;;;;;;7.68;1.45;;;;;;;5.05;75.81;101216.34;4900844;29;20241;-74
2022/12/27 00:22:09;;;;;;;5.13;2.00;;;;;;;5.10;76.32;101225.59;4916827;29;20238;-73
2022/12/27 00:24:39;;;;;;;3.65;1.23;;;;;;;5.08;76.02;101227.59;4894800;29;20205;-74
2022/12/27 00:27:09;;;;;;;9.63;1.58;;;;;;;5.12;75.76;101234.34;4911807;29;20204;-74
2022/12/27 00:29:39;;;;;;;2.10;1.42;;;;;;;4.99;76.21;101235.75;4904520;29;20237;-73
2022/12/27 00:32:13;;;;;;;8.43;1.45;;;;;;;4.91;76.63;101231.19;4912302;29;20297;-75
2022/12/27 00:34:43;;;;;;;6.60;1.40;;;;;;;4.93;77.22;101242.59;4916467;29;20208;-73
2022/12/27 00:37:13;;;;;;;5.10;1.08;;;;;;;4.85;77.15;101245.22;4913255;29;20623;-72
2022/12/27 00:39:43;;;;;;;3.65;1.10;;;;;;;4.88;77.20;101241.38;4897157;29;20219;-73
2022/12/27 00:42:12;;;;;;;6.32;1.67;;;;;;;4.77;77.89;101240.63;4909851;29;20268;-74
2022/12/27 00:44:42;;;;;;;8.18;1.45;;;;;;;4.67;78.19;101236.34;4904432;29;20200;-73
2022/12/27 00:47:13;;;;;;;4.45;1.38;;;;;;;4.52;78.95;101235.22;4915280;29;20254;-73
2022/12/27 00:49:42;;;;;;;10.70;3.05;;;;;;;4.51;79.07;101241.56;4907315;29;20705;-73
2022/12/27 00:52:12;;;;;;;6.25;2.15;;;;;;;4.44;79.39;101245.88;4901151;29;20265;-74
2022/12/27 00:54:41;;;;;;;3.00;1.25;;;;;;;4.33;80.14;101249.63;4897264;29;20726;-73
2022/12/27 00:57:10;;;;;;;6.38;1.63;;;;;;;4.34;80.38;101249.50;4917497;29;20193;-73
2022/12/27 00:59:39;;;;;;;10.43;2.85;;;;;;;4.28;80.74;101238.53;4919193;29;20288;-73
2022/12/27 01:02:09;;;;;;;2.88;1.60;;;;;;;4.33;80.62;101261.19;4917728;29;20204;-73
2022/12/27 01:04:42;;;;;;;3.63;1.13;;;;;;;4.26;80.93;101254.75;4928403;29;20197;-73
2022/12/27 01:07:12;;;;;;;7.47;1.55;;;;;;;4.17;81.38;101262.84;4902117;29;20359;-73
2022/12/27 01:09:43;;;;;;;1.90;1.15;;;;;;;4.22;81.34;101271.28;4901610;29;20229;-73
2022/12/27 01:12:13;;;;;;;1.38;0.95;;;;;;;4.17;81.55;101274.41;4920836;29;20205;-72
2022/12/27 01:14:42;;;;;;;7.65;1.50;;;;;;;4.11;81.91;101258.13;4910373;29;20216;-73
2022/12/27 01:17:12;;;;;;;3.83;1.98;;;;;;;4.06;82.12;101266.63;4927061;29;20209;-73
2022/12/27 01:19:45;;;;;;;5.00;1.30;;;;;;;4.05;82.48;101269.44;4917283;29;20583;-73
2022/12/27 01:22:14;;;;;;;11.13;1.80;;;;;;;4.09;82.66;101286.88;4903645;29;20213;-73
2022/12/27 01:24:44;;;;;;;8.07;1.88;;;;;;;4.12;82.04;101289.25;4927643;29;20193;-73
2022/12/27 01:27:15;;;;;;;4.22;1.40;;;;;;;4.07;82.27;101286.19;4920854;29;20189;-73
2022/12/27 01:29:46;;;;;;;4.80;1.40;;;;;;;4.01;82.66;101297.53;4902966;29;20235;-73
2022/12/27 01:32:16;;;;;;;5.65;2.70;;;;;;;4.00;83.05;101296.69;4923940;29;20201;-72
2022/12/27 01:34:50;;;;;;;7.07;1.23;;;;;;;4.05;83.12;101306.94;4910422;29;20583;-72
2022/12/27 01:37:20;;;;;;;3.67;1.45;;;;;;;4.02;83.69;101308.06;4910156;29;20269;-74
2022/12/27 01:39:50;;;;;;;9.13;1.92;;;;;;;3.99;83.61;101310.19;4921251;29;20248;-73
2022/12/27 01:45:17;;;;;;;5.07;2.47;;;;;;;3.91;84.34;101305.59;4920217;29;20205;-73
2022/12/27 01:47:59;;;;;;;7.18;1.40;;;;;;;3.85;84.78;101307.03;4904163;29;20197;-73
2022/12/27 01:50:34;;;;;;;13.52;1.63;;;;;;;3.80;85.70;101313.81;4904877;29;20229;-73
2022/12/27 01:53:12;;;;;;;8.50;1.63;;;;;;;3.74;85.85;101317.94;4904100;29;20649;-73
2022/12/27 01:55:46;;;;;;;8.65;1.83;;;;;;;3.68;86.45;101323.88;4914745;29;20224;-73
2022/12/27 01:58:22;;;;;;;4.15;1.98;;;;;;;3.65;86.38;101326.84;4913937;29;20548;-73
2022/12/27 02:00:53;;;;;;;4.38;1.52;;;;;;;3.61;86.48;101322.78;4923259;29;20217;-73
2022/12/27 02:03:27;;;;;;;4.90;1.60;;;;;;;3.64;86.96;101332.34;4909867;29;20288;-73
2022/12/27 02:06:01;;;;;;;7.60;2.05;;;;;;;3.60;87.30;101338.97;4927148;29;20704;-73
2022/12/27 02:08:42;;;;;;;3.45;1.45;;;;;;;3.51;87.41;101330.00;4927874;29;20229;-73
2022/12/27 02:11:14;;;;;;;4.05;1.65;;;;;;;3.39;87.76;101326.66;4912485;29;20252;-73
2022/12/27 02:13:46;;;;;;;9.43;1.83;;;;;;;3.47;87.80;101339.31;4901471;29;20217;-73
2022/12/27 02:16:18;;;;;;;3.97;1.23;;;;;;;3.50;87.41;101339.88;4904989;29;20209;-73
2022/12/27 02:18:49;;;;;;;4.63;1.80;;;;;;;3.56;87.41;101349.16;4906619;29;20209;-73
2022/12/27 02:22:06;;;;;;;3.53;1.48;;;;;;;3.71;87.07;101346.84;4909280;29;20524;-73
2022/12/27 02:24:53;;;;;;;2.58;1.17;;;;;;;3.79;86.09;101350.47;4860521;29;20259;-73
2022/12/27 02:28:09;;;;;;;5.13;1.80;;;;;;;3.76;86.38;101358.78;4859632;29;20303;-72
2022/12/27 02:30:43;;;;;;;5.78;1.38;;;;;;;3.61;86.70;101362.94;4924618;29;20245;-72
2022/12/27 02:33:19;;;;;;;5.00;1.75;;;;;;;3.47;87.75;101368.75;4904538;29;20260;-75
2022/12/27 02:35:54;;;;;;;4.38;1.98;;;;;;;3.48;87.84;101363.25;4921460;29;20576;-73
2022/12/27 02:38:26;;;;;;;6.53;1.25;;;;;;;3.42;88.08;101363.00;4909317;29;20283;-74
2022/12/27 02:55:32;;;;;;;3.92;1.40;;;;;;;3.14;90.19;101377.25;4920438;29;20282;-73
2022/12/27 02:58:13;;;;;;;5.70;3.20;;;;;;;3.06;90.25;101377.97;4924579;29;20197;-74
2022/12/27 03:03:55;;;;;;;10.02;1.25;;;;;;;3.02;90.81;101390.78;4900621;29;20269;-74
2022/12/27 03:06:53;;;;;;;3.70;1.30;;;;;;;2.90;91.25;101394.59;4908230;29;20706;-73
2022/12/27 03:16:09;;;;;;;8.80;1.95;;;;;;;2.91;91.22;101393.56;4915878;29;20259;-74
2022/12/27 03:18:54;;;;;;;7.80;1.60;;;;;;;2.91;91.20;101395.41;4895203;29;20607;-74
2022/12/27 03:27:27;;;;;;;7.32;1.80;;;;;;;2.98;90.73;101407.25;4934039;29;20270;-73
2022/12/27 03:35:42;;;;;;;5.95;1.15;;;;;;;3.05;90.29;101403.84;4959175;29;20205;-78
2022/12/27 03:38:13;;;;;;;6.90;1.77;;;;;;;3.09;90.11;101406.25;4969105;29;20203;-78
2022/12/27 03:43:39;;;;;;;4.57;1.70;;;;;;;3.06;90.68;101413.56;4994357;28;20222;-78
2022/12/27 03:46:34;;;;;;;12.07;2.15;;;;;;;3.01;90.21;101412.28;4988108;28;20184;-78
2022/12/27 03:49:15;;;;;;;8.15;1.98;;;;;;;3.02;90.37;101409.50;4991906;28;20231;-77
2022/12/27 03:51:51;;;;;;;2.30;1.27;;;;;;;2.97;90.36;101414.41;4994391;28;20587;-77
2022/12/27 03:54:26;;;;;;;3.15;2.20;;;;;;;3.00;90.53;101408.78;4976882;28;20214;-78
2022/12/27 03:56:57;;;;;;;8.00;2.30;;;;;;;3.08;90.58;101407.22;4983402;28;20319;-78
2022/12/27 03:59:27;;;;;;;4.93;1.02;;;;;;;3.04;90.37;101418.22;4994899;28;20554;-78
2022/12/27 04:01:56;;;;;;;2.60;1.20;;;;;;;2.95;90.90;101413.69;4992620;28;20198;-77
2022/12/27 04:04:26;;;;;;;4.40;1.30;;;;;;;3.08;90.41;101417.94;4995932;28;20187;-78
2022/12/27 04:06:56;;;;;;;2.47;1.70;;;;;;;3.00;90.48;101421.31;4991873;28;20561;-77
2022/12/27 04:34:39;;;;;;;6.47;1.77;;;;;;;3.02;90.46;101420.19;5009523;28;20222;-80
2022/12/27 04:37:10;;;;;;;5.00;2.47;;;;;;;3.07;90.32;101417.09;4996508;28;20193;-80
2022/12/27 04:39:41;;;;;;;8.85;1.52;;;;;;;3.17;90.03;101414.41;4970244;28;20232;-80
2022/12/27 04:56:11;;;;;;;3.80;1.67;;;;;;;3.18;88.49;101427.66;4990245;28;20226;-79
2022/12/27 05:02:01;;;;;;;4.22;2.88;;;;;;;3.26;88.24;101433.13;4991873;28;20188;-79
2022/12/27 05:04:16;;;;;;;5.30;1.73;;;;;;;3.42;87.22;101424.53;4976222;28;20269;-78
2022/12/27 05:06:45;;;;;;;5.05;2.10;;;;;;;3.41;86.59;101421.00;4990804;28;20214;-79
2022/12/27 05:15:01;;;;;;;4.97;2.80;;;;;;;3.36;86.51;101417.06;4968439;29;20280;-79
2022/12/27 05:17:31;;;;;;;2.60;2.10;;;;;;;3.38;86.45;101420.44;4984348;28;20215;-79
2022/12/27 05:20:00;;;;;;;3.85;1.95;;;;;;;3.38;85.99;101412.44;4989299;28;20219;-78
2022/12/27 05:28:04;;;;;;;8.02;3.20;;;;;;;3.65;85.18;101433.91;4995481;28;20222;-77
2022/12/27 05:30:33;;;;;;;6.10;1.60;;;;;;;3.71;84.48;101428.00;4976310;28;20223;-79
2022/12/27 05:33:03;;;;;;;4.53;1.48;;;;;;;3.68;84.76;101438.97;4994496;28;20187;-79
2022/12/27 05:35:33;;;;;;;2.38;1.85;;;;;;;3.60;85.07;101435.31;4995056;28;20199;-77
2022/12/27 05:38:02;;;;;;;3.20;1.60;;;;;;;3.66;84.71;101438.28;4988119;28;20205;-80
2022/12/27 05:40:31;;;;;;;8.77;1.70;;;;;;;3.68;84.70;101444.31;4993237;28;20211;-77
2022/12/27 05:43:04;;;;;;;3.45;1.23;;;;;;;3.72;83.94;101443.06;4997674;28;20348;-77
2022/12/27 05:45:33;;;;;;;4.13;1.83;;;;;;;3.76;84.17;101446.28;4993836;28;20219;-79
2022/12/27 05:48:02;;;;;;;3.13;1.23;;;;;;;3.77;84.08;101448.84;4991116;28;20247;-79
2022/12/27 05:50:31;;;;;;;6.93;1.65;;;;;;;3.88;83.89;101454.00;4991308;28;20218;-79
2022/12/27 05:53:11;;;;;;;10.68;1.80;;;;;;;3.91;83.17;101461.75;4991172;28;20254;-80
2022/12/27 05:55:40;;;;;;;9.68;2.20;;;;;;;3.76;83.07;101457.00;4989677;28;20211;-79
2022/12/27 05:58:11;;;;;;;5.18;1.40;;;;;;;3.75;83.15;101450.78;4991693;28;20211;-79
2022/12/27 06:00:40;;;;;;;5.72;1.70;;;;;;;3.69;83.76;101456.72;4971818;28;20253;-79
2022/12/27 06:03:09;;;;;;;6.00;1.90;;;;;;;3.67;83.81;101458.72;4989927;28;20191;-79
2022/12/27 06:05:38;;;;;;;3.15;1.33;;;;;;;3.58;84.37;101462.25;4971857;29;20186;-78
2022/12/27 06:08:08;;;;;;;3.20;1.45;;;;;;;3.57;84.47;101467.75;4972014;28;20471;-79
2022/12/27 06:10:37;;;;;;;12.30;1.88;;;;;;;3.54;84.81;101463.50;4991986;28;20291;-78
2022/12/27 06:13:07;;;;;;;2.97;1.42;;;;;;;3.57;84.91;101476.63;4992025;28;20202;-80
2022/12/27 06:15:37;;;;;;;5.32;1.92;;;;;;;3.55;84.74;101481.25;4980549;28;20243;-79
2022/12/27 06:18:06;;;;;;;6.70;1.80;;;;;;;3.52;84.85;101478.88;4973650;28;20192;-78
2022/12/27 06:20:35;;;;;;;7.88;2.30;;;;;;;3.51;85.09;101474.50;4986803;28;20211;-79
2022/12/27 06:23:04;;;;;;;7.88;1.65;;;;;;;3.49;85.18;101471.13;4992355;28;20194;-79
2022/12/27 06:25:33;;;;;;;5.93;1.75;;;;;;;3.54;84.92;101479.56;4988004;28;20384;-79
2022/12/27 06:28:02;;;;;;;4.82;1.55;;;;;;;3.52;85.10;101481.56;4979970;28;20195;-79
2022/12/27 06:30:31;;;;;;;8.25;1.77;;;;;;;3.56;84.83;101482.09;4995258;28;20231;-78
2022/12/27 06:33:05;;;;;;;5.05;1.83;;;;;;;3.55;85.09;101485.75;4991651;28;20270;-79
2022/12/27 06:35:34;;;;;;;3.80;1.30;;;;;;;3.52;85.51;101476.19;4979258;28;20218;-78
2022/12/27 06:38:03;;;;;;;4.65;1.92;;;;;;;3.58;84.90;101489.03;4996127;28;20187;-78
2022/12/27 06:40:32;;;;;;;2.60;1.25;;;;;;;3.49;84.91;101487.16;4991040;28;20217;-78
2022/12/27 06:43:01;;;;;;;1.60;0.90;;;;;;;3.58;85.06;101490.84;4971675;28;20203;-78
2022/12/27 06:45:32;;;;;;;2.20;1.52;;;;;;;3.62;84.98;101486.88;4990670;28;20179;-79
2022/12/27 06:48:01;;;;;;;2.15;1.95;;;;;;;3.86;84.16;101490.78;4988315;28;20222;-79
2022/12/27 06:50:31;;;;;;;4.50;1.77;;;;;;;3.88;83.57;101488.81;4971937;28;20223;-80
2022/12/27 06:53:01;;;;;;;3.63;1.40;;;;;;;3.98;83.16;101488.78;4991456;28;20191;-79
2022/12/27 06:55:30;;;;;;;5.53;1.40;;;;;;;3.96;83.21;101488.09;4990874;28;20206;-78
2022/12/27 06:57:59;;;;;;;4.10;1.10;;;;;;;4.00;83.13;101492.16;4988433;28;20195;-78
2022/12/27 07:00:28;;;;;;;4.35;1.75;;;;;;;3.92;83.32;101492.88;4988270;28;20229;-78
2022/12/27 07:02:57;;;;;;;5.05;1.67;;;;;;;3.73;83.85;101487.56;4972753;28;20199;-80
2022/12/27 07:05:26;;;;;;;6.40;2.47;;;;;;;3.75;84.14;101493.63;4992804;28;20260;-80
2022/12/27 07:07:56;;;;;;;2.60;1.98;;;;;;;3.72;84.17;101504.63;4992358;28;20215;-80
2022/12/27 07:10:25;;;;;;;3.35;2.20;;;;;;;3.82;84.11;101509.97;4989029;28;20221;-78
2022/12/27 07:12:55;;;;;;;3.45;2.00;;;;;;;3.86;83.65;101501.50;4991385;28;20210;-80
2022/12/27 07:15:25;;;;;;;8.60;1.95;;;;;;;3.91;83.49;101509.97;4994410;28;20214;-77
2022/12/27 07:17:54;;;;;;;4.07;1.92;;;;;;;4.04;82.84;101512.31;4993251;28;20210;-77
2022/12/27 07:20:23;;;;;;;7.40;1.50;;;;;;;4.05;82.63;101516.69;4995255;28;20227;-78
2022/12/27 07:22:53;;;;;;;7.75;1.60;;;;;;;4.12;82.16;101523.13;4980283;28;20235;-79
2022/12/27 07:25:24;;;;;;;5.13;1.95;;;;;;;4.15;82.07;101522.00;4995284;28;20242;-78
2022/12/27 07:27:53;;;;;;;1.48;1.30;;;;;;;4.22;81.92;101528.47;4996022;28;20210;-77
2022/12/27 07:30:23;;;;;;;1.83;1.15;;;;;;;4.20;81.95;101525.09;4995188;28;20214;-79
2022/12/27 07:32:52;;;;;;;1.98;1.77;;;;;;;4.26;81.67;101532.56;4993123;28;20214;-78
2022/12/27 07:35:21;;;;;;;2.65;1.75;;;;;;;4.23;81.46;101539.03;4990695;28;20191;-79
2022/12/27 07:37:50;;;;;;;5.88;1.60;;;;;;;4.19;81.54;101539.47;4983159;28;20696;-78
2022/12/27 07:40:19;;;;;;;4.57;1.25;;;;;;;4.13;82.00;101553.44;4990269;28;20230;-79
2022/12/27 07:42:49;;;;;;;5.30;1.60;;;;;;;4.06;82.04;101555.88;4989524;28;20199;-79
2022/12/27 07:45:18;;;;;;;4.03;1.50;;;;;;;4.05;81.89;101554.19;4989826;28;20171;-79
2022/12/27 07:47:47;;;;;;;9.80;1.65;;;;;;;4.31;81.84;101546.34;4993080;28;20198;-80
2022/12/27 07:50:16;;;;;;;5.45;1.50;;;;;;;4.40;80.70;101558.88;4991533;28;20227;-78
2022/12/27 07:52:46;;;;;;;3.15;1.50;;;;;;;4.36;80.57;101547.59;4975363;28;20192;-78
2022/12/27 07:55:15;;;;;;;1.92;1.35;;;;;;;4.41;80.14;101557.03;4993359;28;20199;-80
2022/12/27 07:57:44;;;;;;;3.78;1.75;;;;;;;4.40;80.25;101560.72;4990839;28;20223;-78
2022/12/27 08:00:15;;;;;;;4.32;1.83;;;;;;;4.40;80.42;101566.94;4987356;28;20226;-76
2022/12/27 08:02:46;;;;;;;3.17;1.30;;;;;;;4.38;80.53;101568.91;4989640;28;20559;-78
2022/12/27 08:05:15;;;;;;;3.13;1.33;;;;;;;4.42;80.11;101567.59;4989215;28;20195;-80
2022/12/27 08:07:44;;;;;;;3.63;1.23;;;;;;;4.35;80.37;101562.00;4988795;28;20193;-79
2022/12/27 08:10:13;;;;;;;4.82;2.22;;;;;;;4.27;80.89;101574.41;4988776;28;20211;-79
2022/12/27 08:12:42;;;;;;;6.70;2.67;;;;;;;4.13;81.15;101574.88;4970603;28;20271;-80
2022/12/27 08:15:13;;;;;;;9.50;1.70;;;;;;;4.13;83.07;101572.19;4989274;28;20183;-78
2022/12/27 08:17:42;;;;;;;2.28;1.42;;;;;;;4.09;85.17;101586.88;4986624;28;20234;-80
2022/12/27 08:20:14;;;;;;;4.20;1.95;;;;;;;4.05;85.79;101585.47;4989465;28;20246;-80
2022/12/27 08:22:43;;;;;;;11.77;1.98;;;;;;;4.15;86.09;101583.63;4987815;28;20187;-78
2022/12/27 08:25:12;;;;;;;4.38;1.98;;;;;;;4.17;85.34;101589.66;4987400;28;20196;-80
2022/12/27 08:27:41;;;;;;;6.20;1.23;;;;;;;4.24;84.20;101596.16;4971398;28;20203;-80
2022/12/27 08:30:13;;;;;;;5.65;1.88;;;;;;;4.33;83.38;101595.28;4988585;28;20206;-79
2022/12/27 08:32:42;;;;;;;2.97;1.70;;;;;;;4.42;83.16;101598.91;4985561;28;20199;-80
2022/12/27 08:35:11;;;;;;;13.98;2.47;;;;;;;4.43;83.51;101585.38;4988137;28;20188;-79
2022/12/27 08:38:01;;;;;;;4.72;1.73;;;;;;;4.60;82.45;101597.19;4988122;28;20204;-79
2022/12/27 08:40:30;;;;;;;6.43;2.45;;;;;;;4.64;81.57;101590.53;4988017;28;20218;-79
2022/12/27 08:43:00;;;;;;;3.60;1.73;;;;;;;4.56;82.00;101590.41;4970984;28;20195;-80
2022/12/27 08:45:30;;;;;;;5.53;2.15;;;;;;;4.62;82.04;101595.19;4990155;28;20210;-79
2022/12/27 08:48:00;;;;;;;3.42;1.88;;;;;;;4.67;82.31;101604.50;4970663;28;20219;-79
2022/12/27 08:50:29;;;;;;;2.70;1.80;;;;;;;4.61;82.06;101597.03;4987574;28;20250;-80
2022/12/27 08:53:00;;;;;;;7.80;2.33;;;;;;;4.61;82.04;101596.19;4988861;28;20631;-80
2022/12/27 08:55:29;;;;;;;2.42;2.22;;;;;;;4.69;81.37;101601.69;4986752;28;20200;-80
2022/12/27 08:57:59;;;;;;;7.65;2.33;;;;;;;4.73;81.50;101598.56;4988653;28;20222;-77
2022/12/27 09:00:30;;;;;;;3.75;1.83;;;;;;;4.75;81.46;101606.44;4970361;28;20227;-79
2022/12/27 09:03:00;;;;;;;3.50;1.30;;;;;;;4.76;81.47;101605.44;4987190;28;20263;-78
2022/12/27 09:05:29;;;;;;;8.95;2.30;;;;;;;4.75;81.17;101609.09;4988174;28;20602;-78
2022/12/27 09:07:59;;;;;;;4.28;2.25;;;;;;;4.82;81.10;101608.38;4976718;28;20195;-79
2022/12/27 09:10:28;;;;;;;9.13;2.17;;;;;;;4.88;80.44;101614.16;4971653;28;20254;-80
2022/12/27 09:12:57;;;;;;;1.60;1.50;;;;;;;4.88;80.67;101601.59;4974258;28;20250;-79
2022/12/27 09:15:26;;;;;;;6.25;1.95;;;;;;;4.93;80.59;101603.84;4995275;28;20199;-81
2022/12/27 09:17:57;;;;;;;6.35;2.50;;;;;;;5.07;80.09;101606.88;4977954;28;20207;-79
2022/12/27 09:20:27;;;;;;;4.95;2.00;;;;;;;4.99;80.08;101597.84;4977139;28;20226;-78
2022/12/27 09:22:59;;;;;;;4.47;1.77;;;;;;;5.01;80.76;101612.81;4990217;28;20720;-79
2022/12/27 09:25:33;;;;;;;12.32;2.83;;;;;;;5.05;80.16;101608.00;4988967;28;20196;-80
2022/12/27 09:28:02;;;;;;;3.15;2.00;;;;;;;5.00;80.49;101604.91;4990271;28;20167;-79
2022/12/27 09:30:31;;;;;;;8.30;2.13;;;;;;;5.08;80.13;101608.53;4992295;28;20222;-78
2022/12/27 09:33:01;;;;;;;6.20;1.70;;;;;;;5.11;80.58;101607.41;4993262;28;20207;-78
2022/12/27 09:35:31;;;;;;;6.13;2.17;;;;;;;5.08;80.43;101613.06;4992464;28;20187;-78
2022/12/27 09:38:07;;;;;;;6.55;2.22;;;;;;;5.20;80.06;101623.44;4990057;28;20199;-80
2022/12/27 09:40:36;;;;;;;2.83;2.00;;;;;;;5.52;79.29;101617.59;4988898;28;21022;-80
2022/12/27 09:43:08;;;;;;;2.35;1.27;;;;;;;5.66;77.82;101624.28;4989218;28;20267;-79
2022/12/27 09:45:54;;;;;;;4.07;1.67;;;;;;;5.96;76.83;101615.84;4994065;28;20204;-79
2022/12/27 09:48:30;;;;;;;3.53;1.98;;;;;;;5.96;76.81;101620.38;4995406;28;20193;-77
2022/12/27 09:51:06;;;;;;;4.97;1.88;;;;;;;6.15;75.46;101620.22;4995676;28;20215;-78
2022/12/27 09:53:45;;;;;;;2.88;2.13;;;;;;;6.15;75.47;101620.22;4994211;28;20239;-79
2022/12/27 09:56:25;;;;;;;2.85;1.75;;;;;;;6.16;75.63;101621.91;4988122;28;20195;-80
2022/12/27 09:59:24;;;;;;;2.45;1.90;;;;;;;6.19;75.35;101618.09;4993580;28;20234;-78
2022/12/27 10:01:53;;;;;;;2.45;1.65;;;;;;;6.23;75.18;101631.03;4976136;29;20177;-80
2022/12/27 10:04:24;;;;;;;7.55;2.45;;;;;;;6.11;75.44;101629.59;4988188;28;20191;-80
2022/12/27 10:07:21;;;;;;;8.18;2.97;;;;;;;5.98;76.42;101624.63;4993648;28;20192;-78
2022/12/27 10:10:02;;;;;;;5.35;2.40;;;;;;;5.97;76.62;101625.63;4995173;28;20215;-79
2022/12/27 10:12:49;;;;;;;11.68;3.75;;;;;;;5.94;76.88;101627.78;4995258;28;20286;-79
2022/12/27 10:15:28;;;;;;;5.75;2.55;;;;;;;5.95;76.90;101618.72;4994044;28;20202;-79
2022/12/27 10:18:10;;;;;;;3.85;2.05;;;;;;;5.86;77.31;101619.59;4991948;28;20199;-79
2022/12/27 10:20:58;;;;;;;4.10;2.20;;;;;;;5.92;77.66;101613.63;4986525;28;20512;-79
2022/12/27 10:23:31;;;;;;;3.58;2.20;;;;;;;6.09;77.13;101620.84;4983363;28;20199;-78
2022/12/27 10:26:02;;;;;;;4.60;2.75;;;;;;;6.42;76.39;101622.78;4972554;28;20207;-80
2022/12/27 10:28:38;;;;;;;5.82;2.25;;;;;;;6.54;75.80;101626.03;4990792;28;20191;-80
2022/12/27 10:31:12;;;;;;;5.30;3.22;;;;;;;6.71;75.25;101632.38;4992694;28;20231;-80
2022/12/27 10:33:42;;;;;;;12.10;2.55;;;;;;;6.80;74.92;101634.09;4974240;28;20214;-79
2022/12/27 10:36:16;;;;;;;2.70;2.08;;;;;;;6.91;74.29;101660.75;4992148;28;20717;-80
2022/12/27 10:38:45;;;;;;;4.10;1.95;;;;;;;6.59;74.80;101649.78;4985873;28;20273;-79
2022/12/27 10:41:32;;;;;;;8.88;3.10;;;;;;;6.33;75.87;101645.25;4998118;28;20199;-78
2022/12/27 10:44:01;;;;;;;7.13;2.67;;;;;;;6.41;76.77;101647.13;4995226;28;20203;-79
2022/12/27 10:46:32;;;;;;;5.50;2.67;;;;;;;6.35;76.85;101648.59;4997483;28;20198;-78
2022/12/27 10:49:05;;;;;;;9.50;3.63;;;;;;;6.44;76.88;101653.03;4999096;28;20194;-79
2022/12/27 10:51:53;;;;;;;2.08;1.88;;;;;;;6.26;77.76;101652.22;5000210;28;20187;-78
2022/12/27 10:54:25;;;;;;;8.07;2.03;;;;;;;6.30;78.34;101656.28;5000293;28;20176;-78
2022/12/27 10:56:56;;;;;;;4.97;2.20;;;;;;;6.42;77.95;101649.69;5000132;28;20187;-78
2022/12/27 10:59:26;;;;;;;9.63;2.97;;;;;;;6.46;77.81;101656.41;4983289;28;20283;-78
2022/12/27 11:02:17;;;;;;;3.65;2.95;;;;;;;6.39;77.92;101658.03;4996824;28;20187;-79
2022/12/27 11:05:01;;;;;;;5.60;2.50;;;;;;;6.41;77.69;101658.72;4993183;28;20172;-81
2022/12/27 11:07:34;;;;;;;6.65;3.10;;;;;;;6.52;77.76;101671.94;4995165;28;20218;-79
2022/12/27 11:10:15;;;;;;;11.00;2.70;;;;;;;6.36;77.26;101673.63;4996895;28;20254;-79
2022/12/27 11:12:58;;;;;;;6.97;3.15;;;;;;;6.23;77.46;101663.31;4996231;28;20210;-77
2022/12/27 11:15:29;;;;;;;3.15;2.45;;;;;;;6.24;77.83;101670.38;4995891;28;20182;-78
2022/12/27 11:18:00;;;;;;;4.00;2.45;;;;;;;6.26;77.97;101665.66;4996405;28;20222;-80
2022/12/27 11:20:32;;;;;;;5.20;2.90;;;;;;;6.34;77.58;101649.59;4996768;28;20219;-79
2022/12/27 11:23:05;;;;;;;12.25;2.80;;;;;;;6.23;77.14;101666.00;4997639;28;20185;-79
2022/12/27 11:25:35;;;;;;;3.33;2.10;;;;;;;6.21;77.41;101678.72;4981751;28;20207;-78
2022/12/27 11:28:09;;;;;;;9.88;2.90;;;;;;;6.12;77.28;101682.34;4995857;28;20454;-80
2022/12/27 11:30:41;;;;;;;8.18;3.00;;;;;;;6.18;77.50;101679.03;4996251;28;20211;-79
2022/12/27 11:33:20;;;;;;;13.50;2.30;;;;;;;6.25;76.82;101690.00;4998266;28;20195;-78
2022/12/27 11:35:55;;;;;;;3.60;2.70;;;;;;;6.43;75.95;101697.06;4982160;28;20199;-79
2022/12/27 11:38:28;;;;;;;6.72;2.97;;;;;;;6.36;76.31;101693.31;4979771;28;20214;-80
2022/12/27 11:41:03;;;;;;;11.07;2.65;;;;;;;6.47;76.35;101705.66;4998090;28;20211;-78
2022/12/27 11:43:36;;;;;;;5.30;2.92;;;;;;;6.33;76.70;101698.16;4979832;28;20190;-79
2022/12/27 11:46:19;;;;;;;12.13;4.00;;;;;;;6.25;77.26;101696.22;4994242;28;20179;-78
2022/12/27 11:48:55;;;;;;;6.93;3.78;;;;;;;6.22;78.07;101691.19;4978974;28;20210;-78
2022/12/27 11:51:54;;;;;;;4.53;2.58;;;;;;;6.30;77.63;101701.13;4995840;28;20210;-79
2022/12/27 11:54:54;;;;;;;7.60;2.25;;;;;;;6.23;78.27;101692.03;4994628;28;20199;-78
2022/12/27 11:57:39;;;;;;;8.40;2.40;;;;;;;6.16;78.02;101689.09;4993693;28;20176;-78
2022/12/27 12:00:18;;;;;;;8.27;3.13;;;;;;;6.17;78.49;101688.09;4992580;28;20227;-80
2022/12/27 12:03:13;;;;;;;4.55;2.45;;;;;;;6.44;78.22;101692.50;4977022;28;20270;-80
2022/12/27 12:05:58;;;;;;;2.65;2.25;;;;;;;6.44;77.38;101684.44;4959303;29;20211;-80
2022/12/27 12:08:51;;;;;;;9.05;3.67;;;;;;;6.26;76.88;101687.16;4975699;29;20244;-78
2022/12/27 12:11:37;;;;;;;9.13;2.97;;;;;;;6.42;76.77;101689.16;4992894;28;20688;-79
2022/12/27 12:14:37;;;;;;;4.97;3.10;;;;;;;6.37;76.56;101694.16;4974787;28;20168;-81
2022/12/27 12:17:36;;;;;;;5.32;3.33;;;;;;;6.41;76.95;101700.91;4974070;28;20222;-80
2022/12/27 12:20:33;;;;;;;9.55;2.50;;;;;;;6.51;76.65;101702.50;4982280;28;20231;-79
2022/12/27 12:23:11;;;;;;;6.57;2.85;;;;;;;6.49;76.82;101701.81;4990563;28;20275;-80
2022/12/27 12:26:01;;;;;;;3.50;2.72;;;;;;;6.46;76.93;101710.19;4963661;28;20207;-81
2022/12/27 12:29:14;;;;;;;4.22;3.05;;;;;;;6.58;76.26;101708.13;4991753;28;20666;-80
2022/12/27 12:31:57;;;;;;;3.15;2.50;;;;;;;6.71;76.06;101713.94;4992853;28;20179;-79
2022/12/27 12:35:06;;;;;;;11.50;3.13;;;;;;;6.81;75.41;101711.97;4994385;28;20190;-79
2022/12/27 12:38:01;;;;;;;6.47;3.13;;;;;;;6.99;74.82;101718.16;4960844;28;20210;-79
2022/12/27 12:40:58;;;;;;;8.63;2.72;;;;;;;6.99;74.03;101717.28;4990085;28;20263;-80
2022/12/27 12:43:51;;;;;;;10.02;2.90;;;;;;;7.42;73.12;101711.81;4991839;28;20199;-79
2022/12/27 12:46:32;;;;;;;5.35;3.60;;;;;;;7.47;72.50;101710.47;4992544;28;20195;-80
2022/12/27 12:49:49;;;;;;;4.25;2.50;;;;;;;7.25;71.86;101707.34;4989333;28;20258;-79
2022/12/27 12:52:44;;;;;;;4.47;2.90;;;;;;;7.23;72.18;101705.81;4930736;29;20218;-80
2022/12/27 12:55:32;;;;;;;11.95;2.75;;;;;;;7.38;71.66;101718.53;4990092;28;20231;-80
2022/12/27 12:58:19;;;;;;;3.15;2.40;;;;;;;7.43;71.08;101721.56;4972094;28;20214;-78
2022/12/27 13:01:06;;;;;;;10.55;3.10;;;;;;;7.22;71.29;101734.59;4991166;28;20215;-79
2022/12/27 13:03:53;;;;;;;3.22;2.92;;;;;;;7.22;72.10;101734.59;4991227;28;20187;-81
2022/12/27 13:06:57;;;;;;;6.07;2.38;;;;;;;7.23;71.58;101738.13;4990388;28;20230;-79
2022/12/27 13:09:43;;;;;;;5.55;1.83;;;;;;;6.92;72.32;101737.78;4988599;28;20281;-80
2022/12/27 13:12:18;;;;;;;5.57;2.90;;;;;;;6.90;72.83;101726.31;4991430;28;20199;-80
2022/12/27 13:15:04;;;;;;;4.85;2.20;;;;;;;6.65;73.06;101732.53;4991116;28;20282;-79
2022/12/27 13:17:41;;;;;;;8.27;2.97;;;;;;;6.66;72.98;101736.91;4977654;28;20199;-80
2022/12/27 13:20:34;;;;;;;3.63;2.10;;;;;;;6.65;73.00;101736.06;4990615;28;20317;-79
2022/12/27 13:23:13;;;;;;;5.43;2.50;;;;;;;6.69;73.05;101737.44;4973665;28;20211;-78
2022/12/27 13:25:46;;;;;;;7.07;2.95;;;;;;;6.60;73.93;101738.38;4971767;28;20207;-79
2022/12/27 13:28:31;;;;;;;12.55;1.92;;;;;;;6.50;73.54;101740.31;4985035;28;20674;-79
2022/12/27 13:31:08;;;;;;;12.13;3.10;;;;;;;6.44;73.56;101744.44;4987469;28;20307;-79
2022/12/27 13:33:48;;;;;;;9.82;2.60;;;;;;;6.44;72.93;101739.06;4988944;28;20213;-78
2022/12/27 13:36:28;;;;;;;3.05;1.90;;;;;;;6.31;73.52;101737.78;4987939;28;20202;-80
2022/12/27 13:39:20;;;;;;;4.53;2.53;;;;;;;6.44;73.52;101749.81;4988493;28;20271;-80
2022/12/27 13:42:06;;;;;;;4.30;2.40;;;;;;;6.50;72.13;101738.47;4972599;28;20210;-80
2022/12/27 13:44:54;;;;;;;8.45;3.17;;;;;;;6.48;70.63;101747.69;4991565;28;20195;-79